createdAt,value
2023-02-04T00:00:56.341Z,5.35
2023-02-04T00:05:58.551Z,5.57
2023-02-04T00:11:00.696Z,6.63
2023-02-04T00:16:02.802Z,7.45
2023-02-04T00:21:05.104Z,6.63
2023-02-04T00:26:07.186Z,5.47
2023-02-04T00:31:09.309Z,6.82
2023-02-04T00:36:11.286Z,7.03
2023-02-04T00:41:13.503Z,5.85
2023-02-04T00:46:15.597Z,5.05
2023-02-04T00:51:17.697Z,5.53
2023-02-04T00:56:19.702Z,5.97
2023-02-04T01:01:21.807Z,5.78
2023-02-04T01:06:24.025Z,4.95
2023-02-04T01:11:26.087Z,5.10
2023-02-04T01:16:28.164Z,5.65
2023-02-04T01:21:30.393Z,5.60
2023-02-04T01:26:32.445Z,5.25
2023-02-04T01:31:34.582Z,4.97
2023-02-04T01:36:37.976Z,6.07
2023-02-04T01:41:40.598Z,6.25
2023-02-04T01:46:42.766Z,6.35
2023-02-04T01:51:45.058Z,6.60
2023-02-04T01:56:49.026Z,6.68
2023-02-04T02:01:52.645Z,6.40
2023-02-04T02:06:58.700Z,7.47
2023-02-04T02:12:03.195Z,6.35
2023-02-04T02:17:05.229Z,6.13
2023-02-04T02:22:16.848Z,6.60
2023-02-04T02:27:19.357Z,7.05
2023-02-04T02:32:21.566Z,7.80
2023-02-04T02:37:24.260Z,7.68
2023-02-04T02:42:26.392Z,7.68
2023-02-04T02:47:29.518Z,6.70
2023-02-04T02:52:31.757Z,6.63
2023-02-04T02:57:33.830Z,5.93
2023-02-04T03:02:36.349Z,5.50
2023-02-04T03:07:38.558Z,5.40
2023-02-04T03:12:40.713Z,5.88
2023-02-04T03:17:43.945Z,6.07
2023-02-04T03:22:47.742Z,5.78
2023-02-04T03:27:51.605Z,5.90
2023-02-04T03:32:55.498Z,7.75
2023-02-04T03:37:57.513Z,7.55
2023-02-04T03:42:59.741Z,8.55
2023-02-04T03:48:01.873Z,8.95
2023-02-04T03:53:04.201Z,11.07
2023-02-04T03:58:06.205Z,11.93
2023-02-04T04:03:08.436Z,11.95
2023-02-04T04:08:10.520Z,12.90
2023-02-04T04:13:12.498Z,11.85
2023-02-04T04:18:14.518Z,11.85
2023-02-04T04:23:16.499Z,11.95
2023-02-04T04:28:18.655Z,12.70
2023-02-04T04:33:20.681Z,12.52
2023-02-04T04:38:22.819Z,11.73
2023-02-04T04:43:24.964Z,12.65
2023-02-04T04:48:27.021Z,12.90
2023-02-04T04:53:29.072Z,11.90
2023-02-04T04:58:31.239Z,12.50
2023-02-04T05:03:33.289Z,11.57
2023-02-04T05:08:35.870Z,11.95
2023-02-04T05:13:41.201Z,12.68
2023-02-04T05:18:44.020Z,12.25
2023-02-04T05:23:46.218Z,11.30
2023-02-04T05:28:48.418Z,10.80
2023-02-04T05:33:50.598Z,11.98
2023-02-04T05:38:52.818Z,11.50
2023-02-04T05:43:55.012Z,11.55
2023-02-04T05:48:57.062Z,11.98
2023-02-04T05:53:59.333Z,11.85
2023-02-04T05:59:01.517Z,11.70
2023-02-04T06:04:03.926Z,12.27
2023-02-04T06:09:06.073Z,12.18
2023-02-04T06:14:08.093Z,13.10
2023-02-04T06:19:10.198Z,13.68
2023-02-04T06:24:12.239Z,14.32
2023-02-04T06:29:14.289Z,14.55
2023-02-04T06:34:16.505Z,15.35
2023-02-04T06:39:18.628Z,16.58
2023-02-04T06:44:20.662Z,16.77
2023-02-04T06:49:25.070Z,17.27
2023-02-04T06:54:27.109Z,17.75
2023-02-04T06:59:32.409Z,18.05
2023-02-04T07:04:35.307Z,19.63
2023-02-04T07:09:37.754Z,17.70
2023-02-04T07:14:39.725Z,18.95
2023-02-04T07:19:41.954Z,18.25
2023-02-04T07:24:44.111Z,19.13
2023-02-04T07:29:46.133Z,19.88
2023-02-04T07:34:48.388Z,19.85
2023-02-04T07:39:50.500Z,19.27
2023-02-04T07:44:52.647Z,19.88
2023-02-04T07:49:56.995Z,20.85
2023-02-04T07:54:59.550Z,21.85
2023-02-04T08:00:01.827Z,21.50
2023-02-04T08:05:04.256Z,23.52
2023-02-04T08:10:08.154Z,22.73
2023-02-04T08:15:10.272Z,22.80
2023-02-04T08:20:12.820Z,20.55
2023-02-04T08:25:14.993Z,22.88
2023-02-04T08:30:17.564Z,21.67
2023-02-04T08:35:19.600Z,21.77
2023-02-04T08:40:21.663Z,22.40
2023-02-04T08:45:23.708Z,21.80
2023-02-04T08:50:26.716Z,22.90
2023-02-04T08:55:28.800Z,23.00
2023-02-04T09:00:31.333Z,23.30
2023-02-04T09:05:33.898Z,22.27
2023-02-04T09:10:35.935Z,23.45
2023-02-04T09:15:38.065Z,23.50
2023-02-04T09:20:40.357Z,26.63
2023-02-04T09:25:44.142Z,25.10
2023-02-04T09:30:47.148Z,23.95
2023-02-04T09:35:49.547Z,24.08
2023-02-04T09:40:55.243Z,24.10
2023-02-04T09:45:58.371Z,20.75
2023-02-04T09:51:06.548Z,18.30
2023-02-04T09:56:10.830Z,17.60
2023-02-04T10:01:16.953Z,13.80
2023-02-04T10:06:21.628Z,9.57
2023-02-04T10:11:27.102Z,8.55
2023-02-04T10:16:32.784Z,6.68
2023-02-04T10:21:39.775Z,9.90
2023-02-04T10:26:42.258Z,8.75
2023-02-04T10:31:47.854Z,8.25
2023-02-04T10:36:57.477Z,7.30
2023-02-04T10:42:00.711Z,6.10
2023-02-04T10:47:25.919Z,6.63
2023-02-04T10:52:35.690Z,8.32
2023-02-04T10:57:41.936Z,7.80
2023-02-04T11:02:56.546Z,7.82
2023-02-04T11:07:59.414Z,6.20
2023-02-04T11:13:06.759Z,5.88
2023-02-04T11:18:12.537Z,6.22
2023-02-04T11:23:26.801Z,5.30
2023-02-04T11:28:28.831Z,4.75
2023-02-04T11:33:41.391Z,5.07
2023-02-04T11:38:46.114Z,5.45
2023-02-04T11:43:51.953Z,5.25
2023-02-04T11:48:55.615Z,4.90
2023-02-04T11:53:57.767Z,5.30
2023-02-04T11:58:59.909Z,5.60
2023-02-04T12:04:04.799Z,5.43
2023-02-04T12:09:15.793Z,4.97
2023-02-04T12:14:18.460Z,5.35
2023-02-04T12:19:20.575Z,5.53
2023-02-04T12:24:22.642Z,5.20
2023-02-04T12:29:24.673Z,5.07
2023-02-04T12:34:26.714Z,4.72
2023-02-04T12:39:28.731Z,5.10
2023-02-04T12:44:31.338Z,4.68
2023-02-04T12:49:33.326Z,4.53
2023-02-04T12:54:35.865Z,4.90
2023-02-04T12:59:38.050Z,5.00
2023-02-04T13:04:41.374Z,6.20
2023-02-04T13:09:45.096Z,7.00
2023-02-04T13:14:47.389Z,6.90
2023-02-04T13:19:49.591Z,5.32
2023-02-04T13:24:51.921Z,6.45
2023-02-04T13:29:54.164Z,6.30
2023-02-04T13:34:56.350Z,6.05
2023-02-04T13:39:58.474Z,6.68
2023-02-04T13:45:00.910Z,6.93
2023-02-04T13:50:03.063Z,6.68
2023-02-04T13:55:05.507Z,6.72
2023-02-04T14:00:09.214Z,7.07
2023-02-04T14:05:17.521Z,6.65
2023-02-04T14:10:21.995Z,6.68
2023-02-04T14:15:24.633Z,6.82
2023-02-04T14:20:27.070Z,6.97
2023-02-04T14:25:29.060Z,7.30
2023-02-04T14:30:32.213Z,8.55
2023-02-04T14:35:35.128Z,8.52
2023-02-04T14:40:37.179Z,10.55
2023-02-04T14:45:40.287Z,10.88
2023-02-04T14:50:42.419Z,11.60
2023-02-04T14:55:44.490Z,7.88
2023-02-04T15:00:46.655Z,8.55
2023-02-04T15:05:48.654Z,7.72
2023-02-04T15:10:50.778Z,7.72
2023-02-04T15:15:53.044Z,7.85
2023-02-04T15:20:55.334Z,6.90
2023-02-04T15:25:57.686Z,6.78
2023-02-04T15:30:59.727Z,7.28
2023-02-04T15:36:01.919Z,7.95
2023-02-04T15:41:04.404Z,7.78
2023-02-04T15:46:06.852Z,8.27
2023-02-04T15:51:08.918Z,7.10
2023-02-04T15:56:11.130Z,6.05
2023-02-04T16:01:15.463Z,5.90
2023-02-04T16:06:17.680Z,5.80
2023-02-04T16:11:19.775Z,5.50
2023-02-04T16:16:21.959Z,4.75
2023-02-04T16:21:24.110Z,6.75
2023-02-04T16:26:26.380Z,9.65
2023-02-04T16:31:28.539Z,9.60
2023-02-04T16:36:30.795Z,9.77
2023-02-04T16:41:32.950Z,10.38
2023-02-04T16:46:35.064Z,9.80
2023-02-04T16:51:37.380Z,9.15
2023-02-04T16:56:39.504Z,9.05
2023-02-04T17:01:41.940Z,9.63
2023-02-04T17:06:44.222Z,8.98
2023-02-04T17:11:46.437Z,10.00
2023-02-04T17:16:49.206Z,9.27
2023-02-04T17:21:51.539Z,10.05
2023-02-04T17:26:53.646Z,10.40
2023-02-04T17:31:56.412Z,11.30
2023-02-04T17:36:58.474Z,12.38
2023-02-04T17:42:00.445Z,12.23
2023-02-04T17:47:03.160Z,12.13
2023-02-04T17:52:05.602Z,11.45
2023-02-04T17:57:21.098Z,12.27
2023-02-04T18:02:30.943Z,13.45
2023-02-04T18:07:34.182Z,14.10
2023-02-04T18:12:36.746Z,13.35
2023-02-04T18:17:38.725Z,13.52
2023-02-04T18:22:40.778Z,11.75
2023-02-04T18:27:42.924Z,13.27
2023-02-04T18:32:45.145Z,14.38
2023-02-04T18:37:47.751Z,14.32
2023-02-04T18:42:50.107Z,15.85
2023-02-04T18:48:24.940Z,19.52
2023-02-04T18:53:28.533Z,15.32
2023-02-04T18:58:42.658Z,16.98
2023-02-04T19:03:53.234Z,17.10
2023-02-04T19:09:13.687Z,17.80
2023-02-04T19:14:25.151Z,14.60
2023-02-04T19:19:38.963Z,14.60
2023-02-04T19:24:41.349Z,16.27
2023-02-04T19:29:43.587Z,17.23
2023-02-04T19:34:45.757Z,17.85
2023-02-04T19:39:49.638Z,16.58
2023-02-04T19:44:51.880Z,15.18
2023-02-04T19:50:24.763Z,15.52
2023-02-04T19:55:36.273Z,15.00
2023-02-04T20:00:55.228Z,14.77
2023-02-04T20:06:01.620Z,14.85
2023-02-04T20:11:34.763Z,14.65
2023-02-04T20:16:39.137Z,17.63
2023-02-04T20:21:41.603Z,18.67
2023-02-04T20:26:45.026Z,18.65
2023-02-04T20:31:47.535Z,20.45
2023-02-04T20:36:51.987Z,22.98
2023-02-04T20:41:54.282Z,22.30
2023-02-04T20:47:17.000Z,22.95
2023-02-04T20:52:37.933Z,29.55
2023-02-04T20:57:40.007Z,28.08
2023-02-04T21:02:42.078Z,27.77
2023-02-04T21:07:44.053Z,29.67
2023-02-04T21:12:46.074Z,27.95
2023-02-04T21:17:48.373Z,29.67
2023-02-04T21:22:50.397Z,29.70
2023-02-04T21:27:52.631Z,29.35
2023-02-04T21:32:54.664Z,30.85
2023-02-04T21:38:03.122Z,29.85
2023-02-04T21:43:08.012Z,27.08
2023-02-04T21:48:10.234Z,28.88
2023-02-04T21:53:12.390Z,29.48
2023-02-04T21:58:14.543Z,27.85
2023-02-04T22:03:17.362Z,28.02
2023-02-04T22:08:21.148Z,27.58
2023-02-04T22:13:41.637Z,28.02
2023-02-04T22:18:43.762Z,29.73
2023-02-04T22:23:45.975Z,29.13
2023-02-04T22:28:48.131Z,29.60
2023-02-04T22:33:50.249Z,28.35
2023-02-04T22:38:52.263Z,30.15
2023-02-04T22:43:54.265Z,28.52
2023-02-04T22:48:56.735Z,28.83
2023-02-04T22:53:59.180Z,30.05
2023-02-04T22:59:02.843Z,30.70
2023-02-04T23:04:05.005Z,29.15
2023-02-04T23:09:07.175Z,28.52
2023-02-04T23:14:09.433Z,28.23
2023-02-04T23:19:11.438Z,29.05
2023-02-04T23:24:13.477Z,29.02
2023-02-04T23:29:16.421Z,27.85
2023-02-04T23:34:18.463Z,29.63
2023-02-04T23:39:21.054Z,27.50
2023-02-04T23:44:23.191Z,28.02
2023-02-04T23:49:25.258Z,26.40
2023-02-04T23:54:27.512Z,27.48
2023-02-04T23:59:29.903Z,26.63
